Time;durP1;ratioP1;P1;durP2;ratioP2;P2;SDS_P1;SDS_P2;PMS_P1;PMS_P2;Temp;Humidity;BMP_temperature;BMP_pressure;BME280_temperature;BME280_humidity;BME280_pressure;Samples;Min_cycle;Max_cycle;Signal;HPM_P1;HPM_P2
2021/09/02 00:00:43;;;;;;;13.60;5.53;;;;;;;15.44;100.00;102743.16;10460942;28;20408;-68
2021/09/02 00:05:46;;;;;;;10.55;5.22;;;;;;;15.38;100.00;102744.31;10461453;28;20053;-68
2021/09/02 00:10:48;;;;;;;9.32;4.82;;;;;;;15.29;100.00;102744.72;10460651;28;20056;-68
2021/09/02 00:15:51;;;;;;;9.90;4.60;;;;;;;15.33;100.00;102732.25;10460772;28;20063;-68
2021/09/02 00:20:53;;;;;;;8.45;5.03;;;;;;;15.32;100.00;102735.81;10460469;28;20088;-67
2021/09/02 00:25:56;;;;;;;8.32;5.60;;;;;;;15.09;100.00;102740.38;10460892;28;20060;-68
2021/09/02 00:30:58;;;;;;;8.27;4.85;;;;;;;15.33;100.00;102737.50;10460202;28;20080;-68
2021/09/02 00:36:00;;;;;;;8.30;5.00;;;;;;;15.09;100.00;102721.91;10458847;28;20052;-67
2021/09/02 00:41:03;;;;;;;6.13;4.18;;;;;;;15.06;100.00;102729.94;10459586;28;20045;-68
2021/09/02 00:46:12;;;;;;;7.97;5.15;;;;;;;15.02;100.00;102728.38;10459463;28;20451;-68
2021/09/02 00:51:16;;;;;;;9.20;5.00;;;;;;;14.96;100.00;102731.28;10459114;28;20045;-68
2021/09/02 00:56:19;;;;;;;8.35;4.75;;;;;;;14.93;100.00;102723.50;10459192;28;20052;-68
2021/09/02 01:01:22;;;;;;;10.55;5.05;;;;;;;15.21;100.00;102731.03;10457787;28;20131;-68
2021/09/02 01:06:25;;;;;;;9.20;4.85;;;;;;;14.86;100.00;102728.22;10458742;28;20055;-67
2021/09/02 01:11:27;;;;;;;8.18;4.57;;;;;;;14.86;100.00;102720.28;10458535;28;20049;-69
2021/09/02 01:16:30;;;;;;;8.30;4.60;;;;;;;14.90;100.00;102723.69;10458362;28;20055;-68
2021/09/02 01:21:33;;;;;;;11.00;4.88;;;;;;;14.97;100.00;102709.28;10458068;28;20044;-68
2021/09/02 01:26:35;;;;;;;5.88;4.90;;;;;;;14.71;100.00;102720.97;10457548;28;20071;-68
2021/09/02 01:31:39;;;;;;;10.80;5.55;;;;;;;14.71;100.00;102710.44;10457920;28;20045;-68
2021/09/02 01:36:41;;;;;;;12.13;5.05;;;;;;;14.54;100.00;102712.03;10457494;28;20052;-68
2021/09/02 01:41:44;;;;;;;11.43;4.90;;;;;;;14.58;100.00;102704.84;10457881;28;20051;-67
2021/09/02 01:46:46;;;;;;;13.27;4.32;;;;;;;14.87;100.00;102714.09;10457142;28;20040;-68
2021/09/02 01:51:48;;;;;;;7.80;4.10;;;;;;;14.61;100.00;102710.00;10457612;28;20068;-68
2021/09/02 01:56:51;;;;;;;8.18;4.43;;;;;;;14.53;100.00;102707.66;10456919;28;20049;-68
2021/09/02 02:01:53;;;;;;;8.75;4.63;;;;;;;14.39;100.00;102710.03;10457325;28;20049;-67
2021/09/02 02:06:55;;;;;;;8.90;4.95;;;;;;;14.40;100.00;102709.13;10456301;28;20512;-68
2021/09/02 02:11:58;;;;;;;9.65;4.75;;;;;;;14.31;100.00;102710.38;10456142;28;20045;-68
2021/09/02 02:17:00;;;;;;;6.70;3.92;;;;;;;14.48;100.00;102707.00;10455165;28;20052;-68
2021/09/02 02:22:03;;;;;;;8.88;5.78;;;;;;;14.35;100.00;102706.69;10456560;28;20060;-67
2021/09/02 02:27:06;;;;;;;8.90;4.85;;;;;;;14.28;100.00;102700.81;10456151;28;20061;-67
2021/09/02 02:32:08;;;;;;;12.70;5.35;;;;;;;14.29;100.00;102701.69;10456277;28;20049;-68
2021/09/02 02:37:10;;;;;;;6.53;4.20;;;;;;;14.38;100.00;102698.66;10456970;28;20048;-68
2021/09/02 02:42:12;;;;;;;8.80;4.57;;;;;;;14.33;100.00;102705.06;10456161;28;20076;-68
2021/09/02 02:47:15;;;;;;;8.40;4.35;;;;;;;14.40;100.00;102702.06;10455885;28;20041;-67
2021/09/02 02:52:17;;;;;;;8.15;4.85;;;;;;;14.32;100.00;102696.25;10456036;28;20055;-68
2021/09/02 02:57:20;;;;;;;8.35;5.13;;;;;;;14.29;100.00;102694.63;10455475;28;20447;-68
2021/09/02 03:02:22;;;;;;;10.75;4.60;;;;;;;14.28;100.00;102699.97;10455418;28;20493;-68
2021/09/02 03:07:24;;;;;;;9.02;4.53;;;;;;;14.23;100.00;102701.94;10455683;28;20088;-68
2021/09/02 03:12:27;;;;;;;8.55;5.28;;;;;;;14.26;100.00;102705.31;10454262;28;20055;-67
2021/09/02 03:17:29;;;;;;;10.10;5.40;;;;;;;14.25;100.00;102710.63;10455228;28;20089;-68
2021/09/02 03:22:31;;;;;;;10.88;5.68;;;;;;;14.35;100.00;102711.09;10454971;28;20059;-68
2021/09/02 03:27:34;;;;;;;6.78;5.05;;;;;;;14.36;100.00;102708.41;10461753;28;20049;-68
2021/09/02 03:32:37;;;;;;;11.02;5.68;;;;;;;14.20;100.00;102712.59;10462486;28;20049;-67
2021/09/02 03:37:39;;;;;;;7.80;5.60;;;;;;;14.28;100.00;102706.09;10462220;28;20041;-68
2021/09/02 03:42:41;;;;;;;17.95;6.40;;;;;;;14.26;100.00;102705.31;10460841;28;20059;-68
2021/09/02 03:47:48;;;;;;;9.73;5.82;;;;;;;14.37;100.00;102701.34;10461780;28;20067;-68
2021/09/02 03:52:50;;;;;;;12.63;6.18;;;;;;;14.39;100.00;102705.63;10461495;28;20041;-68
2021/09/02 03:57:52;;;;;;;9.63;5.97;;;;;;;14.43;100.00;102698.44;10461178;28;20402;-67
2021/09/02 04:02:55;;;;;;;14.77;6.57;;;;;;;14.35;100.00;102706.69;10461148;28;20049;-68
2021/09/02 04:07:57;;;;;;;10.10;6.10;;;;;;;14.39;100.00;102705.63;10460963;28;20049;-68
2021/09/02 04:12:59;;;;;;;10.00;6.38;;;;;;;14.51;100.00;102696.34;10460867;28;20045;-68
2021/09/02 04:18:02;;;;;;;10.52;7.45;;;;;;;14.62;100.00;102701.16;10460576;28;20049;-68
2021/09/02 04:23:04;;;;;;;10.40;6.85;;;;;;;14.60;100.00;102695.94;10460592;28;20052;-67
2021/09/02 04:28:07;;;;;;;14.30;8.52;;;;;;;14.54;100.00;102683.03;10460000;28;20059;-67
2021/09/02 04:33:09;;;;;;;17.83;9.98;;;;;;;14.35;100.00;102688.22;10460322;28;20041;-68
2021/09/02 04:38:11;;;;;;;14.27;9.35;;;;;;;14.34;100.00;102697.06;10459839;28;20049;-67
2021/09/02 04:43:14;;;;;;;22.85;10.68;;;;;;;14.22;100.00;102694.94;10459633;28;20052;-68
2021/09/02 04:48:21;;;;;;;17.88;10.40;;;;;;;14.23;100.00;102696.69;10459391;28;20045;-68
2021/09/02 04:53:23;;;;;;;17.50;10.50;;;;;;;14.30;100.00;102695.47;10459180;28;20404;-68
2021/09/02 04:58:25;;;;;;;17.95;9.98;;;;;;;14.24;100.00;102703.63;10459035;28;20041;-68
2021/09/02 05:03:28;;;;;;;22.13;12.23;;;;;;;14.32;100.00;102706.81;10458770;28;20382;-68
2021/09/02 05:08:30;;;;;;;23.10;12.65;;;;;;;14.20;100.00;102709.97;10458738;28;20123;-67
2021/09/02 05:13:33;;;;;;;23.08;12.85;;;;;;;14.19;100.00;102717.03;10459223;28;20056;-68
2021/09/02 05:18:35;;;;;;;22.58;12.32;;;;;;;14.17;100.00;102710.09;10458226;28;20048;-68
2021/09/02 05:23:37;;;;;;;20.67;13.43;;;;;;;14.07;100.00;102713.13;10457926;28;20060;-68
2021/09/02 05:28:40;;;;;;;25.10;14.50;;;;;;;14.26;100.00;102710.56;10457825;28;20480;-68
2021/09/02 05:33:42;;;;;;;22.00;13.80;;;;;;;14.35;100.00;102703.19;10457625;28;20052;-68
2021/09/02 05:38:44;;;;;;;22.20;14.05;;;;;;;14.25;100.00;102703.56;10456068;28;20045;-68
2021/09/02 05:43:46;;;;;;;22.48;14.98;;;;;;;14.44;100.00;102700.16;10457752;28;20049;-68
2021/09/02 05:48:49;;;;;;;26.58;15.43;;;;;;;14.45;100.00;102707.13;10456280;28;20404;-68
2021/09/02 05:53:51;;;;;;;26.27;15.25;;;;;;;14.48;100.00;102707.84;10456755;28;20515;-68
2021/09/02 05:58:53;;;;;;;34.33;16.60;;;;;;;14.54;100.00;102697.97;10456842;28;20076;-68
2021/09/02 06:03:56;;;;;;;26.70;13.10;;;;;;;14.51;100.00;102696.34;10457262;28;20049;-68
2021/09/02 06:08:58;;;;;;;31.75;15.50;;;;;;;14.78;100.00;102706.63;10456627;28;20045;-67
2021/09/02 06:14:01;;;;;;;26.75;16.60;;;;;;;14.45;100.00;102717.69;10456638;28;20045;-69
2021/09/02 06:19:03;;;;;;;27.30;18.75;;;;;;;14.39;100.00;102705.63;10455143;28;20416;-68
2021/09/02 06:24:06;;;;;;;30.65;17.10;;;;;;;14.74;100.00;102710.31;10456146;28;20057;-68
2021/09/02 06:29:08;;;;;;;29.35;16.13;;;;;;;14.82;100.00;102714.31;10456490;28;20060;-68
2021/09/02 06:34:11;;;;;;;30.92;17.20;;;;;;;14.91;100.00;102712.19;10456200;28;20049;-67
2021/09/02 06:39:13;;;;;;;31.30;17.85;;;;;;;14.78;100.00;102712.75;10456095;28;20057;-68
2021/09/02 06:44:15;;;;;;;30.52;17.35;;;;;;;15.01;100.00;102717.00;10455905;28;20053;-68
2021/09/02 06:49:20;;;;;;;28.73;17.85;;;;;;;14.86;100.00;102715.91;10455665;28;20492;-68
2021/09/02 06:54:22;;;;;;;30.33;17.30;;;;;;;15.23;100.00;102708.94;10455655;28;20409;-68
2021/09/02 06:59:24;;;;;;;28.00;16.88;;;;;;;15.43;100.00;102712.41;10457670;28;20052;-68
2021/09/02 07:04:27;;;;;;;22.55;13.38;;;;;;;15.93;100.00;102709.13;10463536;28;20060;-68
2021/09/02 07:09:29;;;;;;;28.65;17.63;;;;;;;15.71;100.00;102716.38;10463053;28;20052;-68
2021/09/02 07:14:32;;;;;;;31.98;17.55;;;;;;;16.13;100.00;102708.13;10463647;28;20056;-68
2021/09/02 07:19:34;;;;;;;26.98;15.38;;;;;;;16.34;100.00;102707.97;10463175;28;20128;-68
2021/09/02 07:24:37;;;;;;;24.58;14.10;;;;;;;16.34;100.00;102715.91;10462241;28;20045;-64
2021/09/02 07:29:39;;;;;;;23.73;12.32;;;;;;;16.85;100.00;102726.50;10461641;28;20045;-62
2021/09/02 07:34:43;;;;;;;22.33;13.73;;;;;;;16.20;100.00;102732.44;10461877;28;20045;-64
2021/09/02 07:39:45;;;;;;;24.83;13.07;;;;;;;16.37;100.00;102722.81;10460817;28;20064;-64
2021/09/02 07:44:48;;;;;;;25.85;12.25;;;;;;;17.22;97.98;102728.00;10462137;28;20049;-63
2021/09/02 07:49:50;;;;;;;19.15;8.77;;;;;;;17.63;94.03;102727.50;10462112;28;20052;-63
2021/09/02 07:54:52;;;;;;;21.17;9.90;;;;;;;16.72;97.33;102731.53;10461918;28;20072;-63
2021/09/02 07:59:55;;;;;;;18.40;9.18;;;;;;;17.57;94.53;102727.00;10461049;28;20045;-63
2021/09/02 08:04:57;;;;;;;14.82;9.15;;;;;;;18.60;89.35;102722.78;10460886;28;20052;-64
2021/09/02 08:09:59;;;;;;;15.45;9.52;;;;;;;18.65;88.29;102739.28;10460267;28;20044;-64
2021/09/02 08:15:03;;;;;;;16.20;7.70;;;;;;;19.06;87.34;102733.22;10460742;28;20059;-64
2021/09/02 08:20:06;;;;;;;15.05;7.07;;;;;;;18.36;84.74;102733.94;10460544;28;20041;-63
2021/09/02 08:25:10;;;;;;;15.82;8.05;;;;;;;18.12;86.77;102729.13;10459021;28;20132;-64
2021/09/02 08:30:18;;;;;;;12.93;7.85;;;;;;;18.82;83.58;102732.91;10458755;28;20075;-63
2021/09/02 08:35:29;;;;;;;17.83;8.35;;;;;;;18.95;80.83;102733.91;10459680;28;20045;-69
2021/09/02 08:40:33;;;;;;;;;;;;;;;19.67;81.00;102733.75;10460734;28;20053;-69
2021/09/02 08:45:36;;;;;;;11.95;7.10;;;;;;;19.11;82.53;102725.81;10459716;28;19925;-69
2021/09/02 08:50:39;;;;;;;12.50;7.45;;;;;;;18.67;84.53;102717.00;10459746;28;20052;-68
2021/09/02 08:55:41;;;;;;;16.00;7.40;;;;;;;20.34;78.99;102719.56;10459301;28;20052;-68
2021/09/02 09:00:44;;;;;;;13.55;7.05;;;;;;;20.44;77.66;102727.75;10459104;28;20064;-68
2021/09/02 09:05:53;;;;;;;12.13;5.57;;;;;;;20.66;69.87;102729.81;10458510;28;20057;-70
2021/09/02 09:10:57;;;;;;;16.17;7.47;;;;;;;21.03;72.11;102724.56;10455588;28;20412;-70
2021/09/02 09:15:59;;;;;;;10.45;5.50;;;;;;;21.78;66.66;102712.91;10457962;28;20052;-69
2021/09/02 09:21:13;;;;;;;12.73;6.10;;;;;;;20.33;75.06;102724.03;10457401;28;20053;-70
2021/09/02 09:26:15;;;;;;;14.82;6.40;;;;;;;19.66;76.26;102716.94;10458143;28;20060;-69
2021/09/02 09:31:31;;;;;;;9.68;4.88;;;;;;;20.82;74.45;102719.81;10456823;28;20049;-69
2021/09/02 09:36:37;;;;;;;13.88;5.60;;;;;;;19.72;75.65;102715.69;10457462;28;20554;-69
2021/09/02 09:41:49;;;;;;;11.52;5.80;;;;;;;18.80;76.73;102717.09;10457376;28;20052;-66
2021/09/02 09:47:14;;;;;;;10.25;5.35;;;;;;;19.64;76.41;102716.19;10457006;28;20511;-66
2021/09/02 09:52:27;;;;;;;10.57;4.43;;;;;;;23.13;68.77;102710.47;10457147;28;20052;-65
2021/09/02 09:57:31;;;;;;;11.23;5.88;;;;;;;19.92;69.00;102710.88;10455933;28;20060;-67
2021/09/02 10:02:39;;;;;;;11.23;5.50;;;;;;;19.00;71.80;102709.72;10456994;28;20052;-65
2021/09/02 10:07:45;;;;;;;9.77;5.97;;;;;;;20.11;68.69;102703.38;10457270;28;20051;-65
2021/09/02 10:12:48;;;;;;;8.48;5.53;;;;;;;21.96;70.38;102700.84;10456882;28;20049;-65
2021/09/02 10:17:52;;;;;;;13.10;6.90;;;;;;;19.64;69.17;102692.28;10457019;28;20045;-65
2021/09/02 10:22:56;;;;;;;8.40;5.40;;;;;;;20.31;70.90;102690.50;10456414;28;20053;-66
2021/09/02 10:28:09;;;;;;;11.60;5.43;;;;;;;20.83;72.30;102688.69;10454837;28;20052;-67
2021/09/02 10:33:34;;;;;;;11.93;6.35;;;;;;;21.69;66.94;102690.47;10457904;28;20411;-65
2021/09/02 10:38:37;;;;;;;11.60;5.50;;;;;;;23.33;61.60;102673.22;10464186;28;20504;-65
2021/09/02 10:43:46;;;;;;;12.85;6.05;;;;;;;21.53;62.92;102674.75;10464511;28;20045;-66
2021/09/02 10:48:48;;;;;;;7.78;5.38;;;;;;;22.16;67.37;102686.00;10464062;28;20044;-65
2021/09/02 10:53:50;;;;;;;11.05;4.78;;;;;;;23.55;61.40;102681.19;10464366;28;20048;-65
2021/09/02 10:58:53;;;;;;;9.52;4.95;;;;;;;24.18;56.81;102672.34;10462561;28;20045;-66
2021/09/02 11:03:56;;;;;;;8.70;5.53;;;;;;;21.82;66.56;102669.03;10463952;28;20079;-66
2021/09/02 11:09:00;;;;;;;11.32;5.45;;;;;;;21.95;66.23;102677.81;10463488;28;20106;-66
2021/09/02 11:14:03;;;;;;;12.48;6.22;;;;;;;21.30;64.13;102671.09;10462621;28;20049;-67
2021/09/02 11:19:05;;;;;;;10.95;6.50;;;;;;;22.21;65.48;102664.31;10458529;28;20055;-66
2021/09/02 11:24:10;;;;;;;8.80;5.88;;;;;;;22.37;61.58;102666.63;10461272;28;20398;-66
2021/09/02 11:29:25;;;;;;;10.48;5.85;;;;;;;22.19;63.11;102669.75;10462753;28;20124;-66
2021/09/02 11:34:27;;;;;;;11.48;6.35;;;;;;;23.24;58.33;102647.28;10460093;28;20056;-66
2021/09/02 11:39:32;;;;;;;11.20;4.60;;;;;;;24.66;56.56;102639.63;10462193;28;20053;-64
2021/09/02 11:44:38;;;;;;;9.75;5.47;;;;;;;24.03;57.97;102644.25;10460172;28;20102;-65
2021/09/02 11:49:41;;;;;;;10.55;6.38;;;;;;;23.27;52.67;102631.84;10462258;28;20045;-65
2021/09/02 11:54:43;;;;;;;12.50;4.88;;;;;;;25.69;52.25;102628.59;10461649;28;20055;-65
2021/09/02 11:59:49;;;;;;;8.48;4.70;;;;;;;25.22;50.37;102630.13;10461797;28;20052;-65
2021/09/02 12:04:52;;;;;;;10.30;5.30;;;;;;;23.35;57.91;102631.19;10460441;28;20060;-63
2021/09/02 12:09:54;;;;;;;9.63;5.30;;;;;;;25.57;54.55;102622.50;10459957;28;20049;-65
2021/09/02 12:14:57;;;;;;;7.88;4.88;;;;;;;23.55;56.61;102621.50;10459326;28;20049;-64
2021/09/02 12:20:01;;;;;;;10.00;4.80;;;;;;;24.74;54.95;102613.97;10460592;28;20406;-65
2021/09/02 12:25:15;;;;;;;9.50;5.60;;;;;;;24.28;54.23;102617.03;10460251;28;20493;-64
2021/09/02 12:30:37;;;;;;;8.38;5.00;;;;;;;25.31;52.05;102612.38;10460115;28;20052;-65
2021/09/02 12:35:41;;;;;;;11.07;5.70;;;;;;;24.97;56.60;102604.72;10459915;28;20045;-65
2021/09/02 12:40:43;;;;;;;11.55;6.13;;;;;;;23.62;55.90;102609.31;10458749;28;20045;-64
2021/09/02 12:45:58;;;;;;;9.02;5.95;;;;;;;24.24;52.72;102612.94;10459760;28;20060;-64
2021/09/02 12:51:02;;;;;;;7.97;5.32;;;;;;;23.76;57.64;102604.63;10459336;28;20107;-64
2021/09/02 12:56:19;;;;;;;10.68;6.50;;;;;;;22.79;54.83;102597.44;10459951;28;20056;-64
2021/09/02 13:01:22;;;;;;;11.80;5.95;;;;;;;25.74;51.00;102602.19;10459175;28;20055;-64
2021/09/02 13:06:24;;;;;;;7.90;4.30;;;;;;;26.43;51.89;102595.59;10458451;28;20485;-65
2021/09/02 13:11:28;;;;;;;9.70;5.40;;;;;;;24.61;53.27;102592.78;10458901;28;20049;-63
2021/09/02 13:16:30;;;;;;;8.43;4.85;;;;;;;26.16;53.30;102583.00;10458525;28;20052;-64
2021/09/02 13:21:32;;;;;;;11.15;5.70;;;;;;;26.94;50.63;102576.34;10458003;28;20505;-64
2021/09/02 13:26:35;;;;;;;9.73;5.93;;;;;;;25.11;50.14;102573.13;10457690;28;20416;-63
2021/09/02 13:31:37;;;;;;;10.82;5.10;;;;;;;25.24;53.60;102576.38;10457441;28;20048;-63
2021/09/02 13:36:40;;;;;;;10.38;5.97;;;;;;;25.25;50.03;102566.50;10457634;28;20045;-63
2021/09/02 13:41:42;;;;;;;9.00;7.05;;;;;;;23.56;54.78;102562.56;10457682;28;20045;-61
2021/09/02 13:46:44;;;;;;;8.38;5.68;;;;;;;25.87;51.21;102570.50;10457422;28;20049;-62
2021/09/02 13:51:47;;;;;;;8.85;5.90;;;;;;;26.13;46.89;102554.59;10457300;28;20041;-63
2021/09/02 13:56:49;;;;;;;12.70;7.18;;;;;;;25.82;48.51;102558.50;10456919;28;20041;-62
2021/09/02 14:01:52;;;;;;;12.60;6.80;;;;;;;22.63;54.42;102565.81;10456818;28;20511;-63
2021/09/02 14:06:54;;;;;;;8.75;4.55;;;;;;;23.67;56.94;102552.75;10457571;28;20091;-63
2021/09/02 14:11:57;;;;;;;12.77;7.00;;;;;;;25.30;51.38;102556.22;10455565;28;20049;-62
2021/09/02 14:16:59;;;;;;;15.73;6.60;;;;;;;26.90;46.08;102540.03;10456335;28;20535;-62
2021/09/02 14:22:02;;;;;;;11.02;5.93;;;;;;;24.62;53.74;102535.59;10456754;28;20041;-62
2021/09/02 14:27:05;;;;;;;9.23;5.80;;;;;;;26.92;47.59;102522.75;10456388;28;20076;-62
2021/09/02 14:32:07;;;;;;;9.65;5.60;;;;;;;26.80;47.37;102518.63;10456026;28;20049;-62
2021/09/02 14:37:10;;;;;;;8.57;5.22;;;;;;;25.81;54.19;102513.91;10455735;28;20049;-65
2021/09/02 14:42:12;;;;;;;9.45;5.90;;;;;;;24.32;54.41;102512.38;10455783;28;20045;-65
2021/09/02 14:47:14;;;;;;;9.13;6.07;;;;;;;24.17;55.34;102502.06;10456196;28;20048;-66
2021/09/02 14:52:17;;;;;;;10.10;5.75;;;;;;;25.38;51.74;102502.72;10455826;28;20056;-66
2021/09/02 14:57:21;;;;;;;11.48;5.22;;;;;;;24.55;52.45;102499.66;10455507;28;20045;-64
2021/09/02 15:02:24;;;;;;;7.88;5.50;;;;;;;24.32;50.79;102489.13;10455433;28;20425;-65
2021/09/02 15:07:26;;;;;;;7.55;4.68;;;;;;;26.15;46.63;102487.34;10455502;28;20075;-65
2021/09/02 15:12:29;;;;;;;10.32;5.25;;;;;;;26.65;49.10;102481.53;10455052;28;20398;-65
2021/09/02 15:17:31;;;;;;;16.95;5.80;;;;;;;24.55;54.66;102480.91;10454980;28;20056;-66
2021/09/02 15:22:34;;;;;;;10.60;5.90;;;;;;;22.70;58.02;102475.41;10460674;28;20045;-65
2021/09/02 15:27:37;;;;;;;10.35;5.70;;;;;;;23.39;56.37;102474.13;10462177;28;20060;-67
2021/09/02 15:32:39;;;;;;;9.05;5.28;;;;;;;24.94;51.95;102470.19;10462993;28;20379;-67
2021/09/02 15:37:42;;;;;;;13.45;7.82;;;;;;;25.51;49.87;102467.56;10462410;28;20049;-68
2021/09/02 15:42:44;;;;;;;18.50;8.80;;;;;;;23.80;55.10;102461.63;10462059;28;20493;-68
2021/09/02 15:47:46;;;;;;;18.10;8.75;;;;;;;23.38;57.92;102457.22;10462079;28;20056;-67
2021/09/02 15:52:52;;;;;;;26.40;6.50;;;;;;;23.19;57.74;102456.13;10460406;28;20091;-67
2021/09/02 15:57:54;;;;;;;13.93;6.35;;;;;;;22.94;59.07;102443.97;10461602;28;20053;-64
2021/09/02 16:02:57;;;;;;;12.63;6.13;;;;;;;22.25;63.60;102445.16;10461565;28;20048;-63
2021/09/02 16:07:59;;;;;;;12.82;5.63;;;;;;;22.12;65.88;102435.63;10461042;28;20045;-63
2021/09/02 16:13:03;;;;;;;8.48;5.13;;;;;;;22.23;63.53;102435.59;10460474;28;20051;-64
2021/09/02 16:18:05;;;;;;;9.18;4.85;;;;;;;22.41;65.10;102422.63;10459680;28;20493;-63
2021/09/02 16:23:07;;;;;;;11.00;4.93;;;;;;;21.50;67.02;102417.38;10459972;28;20064;-63
2021/09/02 16:28:11;;;;;;;9.75;5.18;;;;;;;21.25;68.85;102401.53;10460561;28;20053;-62
2021/09/02 16:33:13;;;;;;;8.68;5.40;;;;;;;21.86;66.03;102396.75;10460535;28;20056;-63
2021/09/02 16:38:16;;;;;;;10.80;5.00;;;;;;;21.57;68.49;102393.75;10459959;28;20055;-62
2021/09/02 16:43:19;;;;;;;7.78;5.18;;;;;;;21.06;70.13;102381.66;10458552;28;20524;-63
2021/09/02 16:48:21;;;;;;;8.15;5.57;;;;;;;21.55;71.01;102376.19;10459963;28;20044;-65
2021/09/02 16:53:25;;;;;;;8.48;5.10;;;;;;;21.50;70.18;102369.41;10459095;28;20052;-62
2021/09/02 16:58:27;;;;;;;9.05;4.85;;;;;;;21.34;72.82;102375.06;10457886;28;20413;-63
2021/09/02 17:03:30;;;;;;;10.43;5.30;;;;;;;21.09;73.42;102370.78;10459059;28;20474;-62
2021/09/02 17:08:32;;;;;;;8.95;6.00;;;;;;;20.73;75.15;102375.31;10458648;28;20444;-62
2021/09/02 17:13:34;;;;;;;9.10;6.10;;;;;;;20.58;76.59;102379.09;10458731;28;20061;-62
2021/09/02 17:18:38;;;;;;;23.52;11.05;;;;;;;20.46;78.03;102364.91;10457962;28;20390;-62
2021/09/02 17:23:41;;;;;;;9.98;5.97;;;;;;;20.42;76.47;102364.28;10458343;28;20049;-63
2021/09/02 17:28:43;;;;;;;16.63;8.55;;;;;;;20.14;81.47;102361.94;10457703;28;20057;-63
2021/09/02 17:33:45;;;;;;;19.58;10.77;;;;;;;19.83;82.09;102367.69;10458117;28;20056;-63
2021/09/02 17:38:48;;;;;;;29.77;13.50;;;;;;;19.67;83.87;102364.44;10456593;28;20052;-63
2021/09/02 17:43:50;;;;;;;15.98;7.80;;;;;;;19.45;84.98;102367.72;10456786;28;20404;-62
2021/09/02 17:48:52;;;;;;;9.75;6.15;;;;;;;19.14;85.86;102363.72;10457084;28;20485;-61
2021/09/02 17:53:56;;;;;;;10.45;6.00;;;;;;;18.99;87.23;102363.81;10456029;28;20075;-61
2021/09/02 17:58:58;;;;;;;10.30;5.88;;;;;;;18.67;89.21;102373.94;10457192;28;20045;-61
2021/09/02 18:04:01;;;;;;;9.90;5.47;;;;;;;18.46;92.19;102365.56;10456870;28;20404;-61
2021/09/02 18:09:03;;;;;;;10.02;5.70;;;;;;;18.36;93.39;102374.16;10456715;28;20048;-61
2021/09/02 18:14:05;;;;;;;10.30;5.55;;;;;;;18.11;95.80;102369.59;10456661;28;20049;-60
2021/09/02 18:19:08;;;;;;;8.07;5.22;;;;;;;17.71;98.92;102365.94;10457051;28;20051;-60
2021/09/02 18:24:10;;;;;;;10.70;6.53;;;;;;;17.62;99.13;102370.03;10456090;28;20401;-61
2021/09/02 18:29:12;;;;;;;8.00;5.72;;;;;;;17.30;99.73;102364.06;10456149;28;20485;-61
2021/09/02 18:34:16;;;;;;;9.48;6.03;;;;;;;17.29;100.00;102357.09;10455933;28;20045;-61
2021/09/02 18:39:18;;;;;;;9.35;5.93;;;;;;;17.01;100.00;102364.03;10455796;28;20520;-66
2021/09/02 18:44:21;;;;;;;9.35;5.72;;;;;;;16.79;100.00;102362.63;10456208;28;20048;-62
2021/09/02 18:49:23;;;;;;;7.72;6.07;;;;;;;16.65;100.00;102366.06;10454114;28;20060;-60
2021/09/02 18:54:30;;;;;;;12.38;6.72;;;;;;;16.51;100.00;102369.53;10458132;28;20132;-61
2021/09/02 18:59:32;;;;;;;12.43;7.07;;;;;;;16.33;100.00;102363.50;10463705;28;20057;-60
2021/09/02 19:04:41;;;;;;;27.00;10.07;;;;;;;16.31;100.00;102369.81;10463680;28;20508;-60
2021/09/02 19:09:48;;;;;;;22.33;8.75;;;;;;;16.18;100.00;102376.75;10463809;28;20049;-60
2021/09/02 19:14:52;;;;;;;12.85;7.75;;;;;;;15.94;100.00;102375.38;10463394;28;20048;-60
2021/09/02 19:20:01;;;;;;;20.00;9.10;;;;;;;15.83;100.00;102377.72;10462387;28;20049;-60
2021/09/02 19:25:04;;;;;;;17.05;10.05;;;;;;;15.69;100.00;102386.38;10463006;28;20053;-60
2021/09/02 19:30:08;;;;;;;11.90;8.32;;;;;;;15.79;100.00;102373.56;10462901;28;20063;-60
2021/09/02 19:35:11;;;;;;;14.90;7.88;;;;;;;15.79;100.00;102382.34;10461698;28;20053;-60
2021/09/02 19:40:13;;;;;;;13.38;7.22;;;;;;;15.63;100.00;102388.50;10462294;28;20512;-60
2021/09/02 19:45:20;;;;;;;13.57;8.13;;;;;;;15.49;100.00;102383.97;10461050;28;20053;-60
2021/09/02 19:50:24;;;;;;;14.68;7.70;;;;;;;15.38;100.00;102392.44;10462009;28;20048;-60
2021/09/02 19:55:45;;;;;;;;;;;;;;;15.44;100.00;102383.34;10462171;28;20049;-61
2021/09/02 20:00:48;;;;;;;12.93;7.80;;;;;;;15.31;100.00;102375.22;10461490;28;19921;-61
2021/09/02 20:06:14;;;;;;;11.07;8.05;;;;;;;15.28;100.00;102376.25;10460998;28;20045;-60
2021/09/02 20:11:18;;;;;;;8.20;7.15;;;;;;;15.24;100.00;102375.53;10459948;28;20053;-60
2021/09/02 20:16:25;;;;;;;11.88;8.25;;;;;;;15.15;100.00;102375.19;10461025;28;20049;-60
2021/09/02 20:21:27;;;;;;;12.10;8.18;;;;;;;15.08;100.00;102379.03;10459815;28;20098;-60
2021/09/02 20:26:34;;;;;;;11.35;7.53;;;;;;;15.00;100.00;102377.66;10461224;28;20053;-60
2021/09/02 20:31:36;;;;;;;13.75;8.80;;;;;;;14.91;100.00;102379.91;10460678;28;20052;-60
2021/09/02 20:36:44;;;;;;;10.20;8.10;;;;;;;14.97;100.00;102367.25;10460602;28;20045;-60
2021/09/02 20:41:52;;;;;;;14.00;7.88;;;;;;;14.82;100.00;102368.03;10460043;28;20049;-60
2021/09/02 20:46:56;;;;;;;13.70;9.13;;;;;;;14.76;100.00;102371.84;10458397;28;20433;-60
2021/09/02 20:51:58;;;;;;;11.65;8.07;;;;;;;14.84;100.00;102374.97;10458663;28;20443;-60
2021/09/02 20:57:01;;;;;;;13.65;8.38;;;;;;;14.60;100.00;102382.28;10459332;28;20045;-60
2021/09/02 21:02:04;;;;;;;15.23;10.80;;;;;;;14.75;100.00;102383.31;10459343;28;20049;-60
2021/09/02 21:07:09;;;;;;;13.32;9.77;;;;;;;14.56;100.00;102375.44;10457701;28;20110;-60
2021/09/02 21:12:19;;;;;;;11.18;9.07;;;;;;;14.43;100.00;102372.53;10459155;28;20052;-60
2021/09/02 21:17:22;;;;;;;11.68;8.77;;;;;;;14.64;100.00;102370.69;10456275;28;20041;-60
2021/09/02 21:22:27;;;;;;;15.82;10.43;;;;;;;14.45;100.00;102378.56;10458829;28;20041;-60
2021/09/02 21:27:30;;;;;;;14.55;9.13;;;;;;;14.38;100.00;102378.97;10457568;28;20060;-60
2021/09/02 21:32:40;;;;;;;16.45;9.90;;;;;;;14.36;100.00;102372.94;10458118;28;20048;-60
2021/09/02 21:37:50;;;;;;;14.00;10.50;;;;;;;14.44;100.00;102376.00;10456422;28;20508;-60
2021/09/02 21:43:07;;;;;;;14.70;9.77;;;;;;;14.38;100.00;102376.34;10457755;28;20052;-60
2021/09/02 21:48:13;;;;;;;16.90;9.43;;;;;;;14.34;100.00;102378.25;10456850;28;20080;-60
2021/09/02 21:53:17;;;;;;;14.68;9.40;;;;;;;14.23;100.00;102368.22;10457425;28;20060;-60
2021/09/02 21:58:21;;;;;;;14.90;10.63;;;;;;;14.18;100.00;102361.47;10456861;28;20053;-60
2021/09/02 22:03:24;;;;;;;15.38;10.18;;;;;;;14.17;100.00;102371.19;10455853;28;20052;-60
2021/09/02 22:08:26;;;;;;;17.70;9.68;;;;;;;14.25;100.00;102357.63;10456879;28;20052;-60
2021/09/02 22:13:49;;;;;;;16.83;11.07;;;;;;;14.15;100.00;102365.09;10455354;28;20049;-60
2021/09/02 22:19:33;;;;;;;15.82;10.25;;;;;;;14.13;100.00;102367.81;10456977;28;20051;-60
2021/09/02 22:24:36;;;;;;;16.98;10.18;;;;;;;13.99;100.00;102359.72;10456066;28;20080;-59
2021/09/02 22:29:39;;;;;;;18.30;11.82;;;;;;;14.23;100.00;102359.47;10458003;28;20045;-60
2021/09/02 22:34:42;;;;;;;16.02;11.50;;;;;;;13.74;100.00;102352.09;10463509;28;20485;-60
2021/09/02 22:39:45;;;;;;;13.98;10.48;;;;;;;13.84;100.00;102355.19;10465903;28;20115;-60
2021/09/02 22:44:49;;;;;;;16.23;11.05;;;;;;;13.77;100.00;102356.34;10446874;28;20064;-60
2021/09/02 22:49:53;;;;;;;13.07;10.32;;;;;;;13.91;100.00;102354.81;10463247;28;20055;-60
2021/09/02 22:54:56;;;;;;;20.35;11.27;;;;;;;13.64;100.00;102353.47;10464256;28;20048;-60